Airfield :







YOU CAN JOIN US ON...

 
LOGIN :

Register | Disclaimer

   EN    FR    IT 

 









Legend :    VFR   Marginal VFR   IFR   Intensive IFR   Very Intensive IFR
Visi :
Ceiling :
>= 8 km
>= 3000ft
5 to 8 km
1000 to 3000 ft
1500m to 5 km
500 to 1000 ft
800 to 1500m
200 to 500 ft
< 800m
< 200 ft
Symbols :   Thunderstorms  Fog  Heavy snow  Heavy precipitations  Wind > 20 kt







- Airport Elevation : 474 ft


KPTD - Potsdam Municipal-Damon field

CURRENT METAR :
  • 150815Z AUTO 22006KT 10SM FEW042 SCT055 12/11 A3013 RMK AO2

EXPIRED METARs :
  • 150755Z AUTO 22007KT 10SM FEW034 SCT045 BKN050 13/11 A3012 RMK AO2
  • 150735Z AUTO 23008KT 10SM FEW030 BKN035 BKN045 13/11 A3012 RMK AO2
  • 150715Z AUTO 24008KT 10SM SCT047 BKN055 13/11 A3012 RMK AO2
  • 150655Z AUTO 23007KT 10SM BKN050 12/11 A3012 RMK AO2
  • 150635Z AUTO 22006KT 10SM SCT055 12/10 A3012 RMK AO2
  • 150615Z AUTO 21005KT 10SM FEW050 BKN055 12/11 A3012 RMK AO2
  • 150555Z AUTO 20005KT 10SM SCT050 BKN055 13/11 A3011 RMK AO2
  • 150535Z AUTO 20006KT 10SM SCT055 13/11 A3012 RMK AO2

TAF N/A
No reported NOTAMs for that airfield.



MET'MAP, your aeronautical weather chart ! - Copyright ORBIFLY December 2007 - Disclaimer

ORBIFLY MET'MAP TEAM :

Programming & Development : Alexandra Zaïnal
Concept & Development : Baudouin d'Aumeries
Co-Development & Prog : Marc-Olivier Méhu
Technical & hardware support : Manuel Goepfert

Contact : metmap@orbifly.com




SOURCES & CREDITS :

   NOAA